Time,TemperatureF,DewpointF,PressureIn,WindDirection,WindDirectionDegrees,WindSpeedMPH,WindSpeedGustMPH,Humidity,HourlyPrecipIn,Conditions,Clouds,dailyrainin,SoftwareType,DateUTC
2013-06-25 00:01:00,60.0,57.4,29.77,North,360,0.0,0.0,91,0.00,,---,0.00,VWS V14.01,2013-06-25 04:01:00,
2013-06-25 00:06:00,60.0,57.7,29.77,North,360,0.0,0.0,92,0.00,,---,0.00,VWS V14.01,2013-06-25 04:06:00,
2013-06-25 00:11:00,60.0,57.7,29.77,North,360,0.0,1.0,92,0.00,,---,0.00,VWS V14.01,2013-06-25 04:11:00,
2013-06-25 00:16:00,60.0,57.7,29.78,North,360,0.0,1.0,92,0.00,,---,0.00,VWS V14.01,2013-06-25 04:16:00,
2013-06-25 00:21:00,60.0,57.7,29.77,North,360,0.0,1.0,92,0.00,,---,0.00,VWS V14.01,2013-06-25 04:21:00,
2013-06-25 00:26:00,60.0,57.7,29.77,North,360,0.0,1.0,92,0.00,,---,0.00,VWS V14.01,2013-06-25 04:26:00,
2013-06-25 00:31:00,60.0,57.7,29.77,North,360,0.0,1.0,92,0.00,,---,0.00,VWS V14.01,2013-06-25 04:31:00,
2013-06-25 00:36:00,60.0,57.7,29.77,North,360,0.0,1.0,92,0.00,,---,0.00,VWS V14.01,2013-06-25 04:36:00,
2013-06-25 00:41:00,59.9,57.6,29.76,North,360,0.0,1.0,92,0.00,,---,0.00,VWS V14.01,2013-06-25 04:41:00,
2013-06-25 00:46:00,59.9,57.6,29.76,North,360,0.0,1.0,92,0.00,,---,0.00,VWS V14.01,2013-06-25 04:46:00,
2013-06-25 00:51:00,59.9,57.9,29.76,North,360,0.0,1.0,93,0.00,,---,0.00,VWS V14.01,2013-06-25 04:51:00,
2013-06-25 00:56:00,60.0,58.0,29.76,North,360,0.0,2.0,93,0.00,,---,0.00,VWS V14.01,2013-06-25 04:56:00,
2013-06-25 01:01:00,60.2,58.2,29.76,North,360,0.0,2.0,93,0.00,,---,0.00,VWS V14.01,2013-06-25 05:01:00,
2013-06-25 01:06:00,60.3,58.0,29.76,North,360,0.0,2.0,92,0.00,,---,0.00,VWS V14.01,2013-06-25 05:06:00,
2013-06-25 01:11:00,60.5,58.2,29.76,North,360,0.0,2.0,92,0.00,,---,0.00,VWS V14.01,2013-06-25 05:11:00,
2013-06-25 01:16:00,60.6,58.3,29.76,North,360,0.0,2.0,92,0.00,,---,0.00,VWS V14.01,2013-06-25 05:16:00,
2013-06-25 01:21:00,60.6,58.0,29.77,North,360,0.0,2.0,91,0.00,,---,0.00,VWS V14.01,2013-06-25 05:21:00,
2013-06-25 01:26:00,60.6,58.0,29.77,North,360,0.0,2.0,91,0.00,,---,0.00,VWS V14.01,2013-06-25 05:26:00,
2013-06-25 01:31:00,60.8,58.2,29.77,North,360,0.0,2.0,91,0.00,,---,0.00,VWS V14.01,2013-06-25 05:31:00,
2013-06-25 01:36:00,60.9,58.3,29.77,North,360,1.0,2.0,91,0.00,,---,0.00,VWS V14.01,2013-06-25 05:36:00,
2013-06-25 01:41:00,61.0,58.0,29.77,North,360,0.0,2.0,90,0.00,,---,0.00,VWS V14.01,2013-06-25 05:41:00,
2013-06-25 01:46:00,61.3,58.3,29.77,North,360,0.0,2.0,90,0.00,,---,0.00,VWS V14.01,2013-06-25 05:46:00,
2013-06-25 01:51:00,61.6,58.3,29.76,North,360,0.0,2.0,89,0.00,,---,0.00,VWS V14.01,2013-06-25 05:51:00,
2013-06-25 01:56:00,61.9,58.3,29.76,North,360,0.0,2.0,88,0.00,,---,0.00,VWS V14.01,2013-06-25 05:56:00,
2013-06-25 02:01:00,62.1,58.5,29.76,North,360,0.0,1.0,88,0.00,,---,0.00,VWS V14.01,2013-06-25 06:01:00,
2013-06-25 02:06:00,62.2,58.6,29.76,North,360,0.0,1.0,88,0.00,,---,0.00,VWS V14.01,2013-06-25 06:06:00,
2013-06-25 02:11:00,62.3,58.4,29.76,North,360,0.0,1.0,87,0.00,,---,0.00,VWS V14.01,2013-06-25 06:11:00,
2013-06-25 02:16:00,62.5,58.3,29.76,North,360,0.0,2.0,86,0.00,,---,0.00,VWS V14.01,2013-06-25 06:16:00,
2013-06-25 02:21:00,62.7,58.8,29.76,North,360,1.0,2.0,87,0.00,,---,0.00,VWS V14.01,2013-06-25 06:21:00,
2013-06-25 02:26:00,62.5,58.9,29.76,North,360,0.0,2.0,88,0.00,,---,0.00,VWS V14.01,2013-06-25 06:26:00,
2013-06-25 02:31:00,62.3,58.7,29.76,North,360,0.0,2.0,88,0.00,,---,0.00,VWS V14.01,2013-06-25 06:31:00,
2013-06-25 02:36:00,62.2,58.6,29.75,North,360,0.0,2.0,88,0.00,,---,0.00,VWS V14.01,2013-06-25 06:36:00,
2013-06-25 02:41:00,62.2,58.6,29.75,North,360,0.0,2.0,88,0.00,,---,0.00,VWS V14.01,2013-06-25 06:41:00,
2013-06-25 02:46:00,62.2,58.6,29.76,North,360,0.0,2.0,88,0.00,,---,0.00,VWS V14.01,2013-06-25 06:46:00,
2013-06-25 02:51:00,62.3,58.4,29.76,North,360,0.0,2.0,87,0.00,,---,0.00,VWS V14.01,2013-06-25 06:51:00,
2013-06-25 02:56:00,62.5,58.3,29.75,North,360,0.0,2.0,86,0.00,,---,0.00,VWS V14.01,2013-06-25 06:56:00,
2013-06-25 03:01:00,62.7,58.5,29.75,North,360,0.0,2.0,86,0.00,,---,0.00,VWS V14.01,2013-06-25 07:01:00,
2013-06-25 03:06:00,62.7,58.8,29.75,North,360,0.0,2.0,87,0.00,,---,0.00,VWS V14.01,2013-06-25 07:06:00,
2013-06-25 03:11:00,62.6,59.0,29.75,North,360,0.0,2.0,88,0.00,,---,0.00,VWS V14.01,2013-06-25 07:11:00,
2013-06-25 03:16:00,62.4,58.8,29.75,North,360,0.0,2.0,88,0.00,,---,0.00,VWS V14.01,2013-06-25 07:16:00,
2013-06-25 03:21:00,62.3,59.0,29.75,North,360,0.0,2.0,89,0.00,,---,0.00,VWS V14.01,2013-06-25 07:21:00,
2013-06-25 03:26:00,62.4,59.1,29.75,North,360,0.0,2.0,89,0.00,,---,0.00,VWS V14.01,2013-06-25 07:26:00,
2013-06-25 03:31:00,62.6,59.3,29.75,North,360,0.0,2.0,89,0.00,,---,0.00,VWS V14.01,2013-06-25 07:31:00,
2013-06-25 03:36:00,62.7,59.7,29.75,North,360,0.0,2.0,90,0.00,,---,0.00,VWS V14.01,2013-06-25 07:36:00,
2013-06-25 03:41:00,62.1,58.2,29.75,North,360,1.0,2.0,87,0.00,,---,0.00,VWS V14.01,2013-06-25 07:41:00,
2013-06-25 03:46:00,62.2,59.2,29.75,North,360,0.0,2.0,90,0.00,,---,0.00,VWS V14.01,2013-06-25 07:46:00,
2013-06-25 03:51:00,61.9,58.6,29.75,North,360,1.0,2.0,89,0.00,,---,0.00,VWS V14.01,2013-06-25 07:51:00,
2013-06-25 03:56:00,61.8,58.5,29.76,North,360,0.0,2.0,89,0.00,,---,0.00,VWS V14.01,2013-06-25 07:56:00,
2013-06-25 04:01:00,61.5,58.2,29.76,North,360,0.0,0.0,89,0.00,,---,0.00,VWS V14.01,2013-06-25 08:01:00,
2013-06-25 04:06:00,61.5,58.8,29.76,North,360,0.0,0.0,91,0.00,,---,0.00,VWS V14.01,2013-06-25 08:06:00,
2013-06-25 04:11:00,61.5,58.8,29.76,North,360,0.0,0.0,91,0.00,,---,0.00,VWS V14.01,2013-06-25 08:11:00,
2013-06-25 04:16:00,61.4,58.8,29.75,North,360,0.0,0.0,91,0.00,,---,0.00,VWS V14.01,2013-06-25 08:16:00,
2013-06-25 04:21:00,61.4,58.8,29.75,North,360,0.0,0.0,91,0.00,,---,0.00,VWS V14.01,2013-06-25 08:21:00,
2013-06-25 04:26:00,61.4,58.8,29.75,North,360,0.0,0.0,91,0.00,,---,0.00,VWS V14.01,2013-06-25 08:26:00,
2013-06-25 04:31:00,61.3,58.7,29.75,North,360,0.0,0.0,91,0.00,,---,0.00,VWS V14.01,2013-06-25 08:31:00,
2013-06-25 04:36:00,61.3,58.7,29.75,North,360,0.0,0.0,91,0.00,,---,0.00,VWS V14.01,2013-06-25 08:36:00,
2013-06-25 04:41:00,61.3,58.7,29.75,North,360,0.0,0.0,91,0.00,,---,0.00,VWS V14.01,2013-06-25 08:41:00,
2013-06-25 04:46:00,61.3,59.0,29.75,North,360,0.0,0.0,92,0.00,,---,0.00,VWS V14.01,2013-06-25 08:46:00,
2013-06-25 04:51:00,61.3,59.0,29.74,North,360,0.0,0.0,92,0.00,,---,0.00,VWS V14.01,2013-06-25 08:51:00,
2013-06-25 04:56:00,61.3,59.0,29.74,North,360,0.0,0.0,92,0.00,,---,0.00,VWS V14.01,2013-06-25 08:56:00,
2013-06-25 05:01:00,61.4,59.1,29.74,North,360,0.0,0.0,92,0.00,,---,0.00,VWS V14.01,2013-06-25 09:01:00,
2013-06-25 05:06:00,61.6,59.6,29.74,North,360,0.0,0.0,93,0.00,,---,0.00,VWS V14.01,2013-06-25 09:06:00,
2013-06-25 05:11:00,61.6,59.6,29.75,North,360,0.0,1.0,93,0.00,,---,0.00,VWS V14.01,2013-06-25 09:11:00,
2013-06-25 05:16:00,61.9,60.2,29.75,North,360,0.0,1.0,94,0.00,,---,0.00,VWS V14.01,2013-06-25 09:16:00,
2013-06-25 05:21:00,62.3,60.6,29.75,North,360,0.0,1.0,94,0.00,,---,0.00,VWS V14.01,2013-06-25 09:21:00,
2013-06-25 05:26:00,62.4,60.7,29.74,North,360,0.0,1.0,94,0.00,,---,0.00,VWS V14.01,2013-06-25 09:26:00,
2013-06-25 05:31:00,62.8,61.3,29.74,North,360,0.0,2.0,95,0.00,,---,0.00,VWS V14.01,2013-06-25 09:31:00,
2013-06-25 05:36:00,63.5,62.0,29.75,North,360,1.0,2.0,95,0.00,,---,0.00,VWS V14.01,2013-06-25 09:36:00,
2013-06-25 05:41:00,64.0,62.5,29.74,North,360,0.0,2.0,95,0.00,,---,0.00,VWS V14.01,2013-06-25 09:41:00,
2013-06-25 05:46:00,64.3,62.8,29.74,North,360,0.0,2.0,95,0.00,,---,0.00,VWS V14.01,2013-06-25 09:46:00,
2013-06-25 05:51:00,64.7,62.9,29.75,North,360,2.0,2.0,94,0.00,,---,0.00,VWS V14.01,2013-06-25 09:51:00,
2013-06-25 05:56:00,65.2,62.8,29.75,North,360,0.0,3.0,92,0.00,,---,0.00,VWS V14.01,2013-06-25 09:56:00,
2013-06-25 06:01:00,65.8,62.8,29.76,North,360,0.0,3.0,90,0.00,,---,0.00,VWS V14.01,2013-06-25 10:01:00,
2013-06-25 06:06:00,66.2,62.9,29.76,North,360,2.0,3.0,89,0.00,,---,0.00,VWS V14.01,2013-06-25 10:06:00,
2013-06-25 06:11:00,66.0,62.7,29.75,North,360,1.0,3.0,89,0.00,,---,0.00,VWS V14.01,2013-06-25 10:11:00,
2013-06-25 06:16:00,65.8,62.5,29.76,North,360,3.0,3.0,89,0.00,,---,0.00,VWS V14.01,2013-06-25 10:16:00,
2013-06-25 06:21:00,65.6,62.6,29.76,North,360,2.0,3.0,90,0.00,,---,0.00,VWS V14.01,2013-06-25 10:21:00,
2013-06-25 06:26:00,65.5,62.5,29.76,North,360,2.0,3.0,90,0.00,,---,0.00,VWS V14.01,2013-06-25 10:26:00,
2013-06-25 06:31:00,65.5,62.2,29.76,North,360,2.0,3.0,89,0.00,,---,0.00,VWS V14.01,2013-06-25 10:31:00,
2013-06-25 06:36:00,65.6,62.3,29.76,North,360,2.0,3.0,89,0.00,,---,0.00,VWS V14.01,2013-06-25 10:36:00,
2013-06-25 06:41:00,65.5,62.2,29.76,North,360,0.0,3.0,89,0.00,,---,0.00,VWS V14.01,2013-06-25 10:41:00,
2013-06-25 06:46:00,65.5,62.2,29.76,North,360,2.0,3.0,89,0.00,,---,0.00,VWS V14.01,2013-06-25 10:46:00,
2013-06-25 06:51:00,65.6,62.3,29.76,North,360,1.0,3.0,89,0.00,,---,0.00,VWS V14.01,2013-06-25 10:51:00,
2013-06-25 06:56:00,65.7,62.0,29.76,North,360,2.0,3.0,88,0.00,,---,0.00,VWS V14.01,2013-06-25 10:56:00,
2013-06-25 07:01:00,65.7,62.0,29.76,North,360,0.0,3.0,88,0.00,,---,0.00,VWS V14.01,2013-06-25 11:01:00,
2013-06-25 07:06:00,65.8,62.2,29.76,North,360,2.0,3.0,88,0.00,,---,0.00,VWS V14.01,2013-06-25 11:06:00,
2013-06-25 07:11:00,66.0,62.0,29.76,North,360,0.0,3.0,87,0.00,,---,0.00,VWS V14.01,2013-06-25 11:11:00,
2013-06-25 07:16:00,66.4,62.1,29.77,North,360,0.0,3.0,86,0.00,,---,0.00,VWS V14.01,2013-06-25 11:16:00,
2013-06-25 07:21:00,66.7,62.0,29.77,North,360,0.0,3.0,85,0.00,,---,0.00,VWS V14.01,2013-06-25 11:21:00,
2013-06-25 07:26:00,66.8,62.2,29.77,North,360,1.0,3.0,85,0.00,,---,0.00,VWS V14.01,2013-06-25 11:26:00,
2013-06-25 07:31:00,66.9,62.2,29.76,North,360,0.0,3.0,85,0.00,,---,0.00,VWS V14.01,2013-06-25 11:31:00,
2013-06-25 07:36:00,66.8,62.2,29.76,North,360,1.0,3.0,85,0.00,,---,0.00,VWS V14.01,2013-06-25 11:36:00,
2013-06-25 07:41:00,66.8,62.5,29.76,North,360,0.0,3.0,86,0.00,,---,0.00,VWS V14.01,2013-06-25 11:41:00,
2013-06-25 07:46:00,66.6,62.6,29.76,North,360,0.0,3.0,87,0.00,,---,0.00,VWS V14.01,2013-06-25 11:46:00,
2013-06-25 07:51:00,66.6,62.6,29.76,North,360,0.0,3.0,87,0.00,,---,0.00,VWS V14.01,2013-06-25 11:51:00,
2013-06-25 07:56:00,66.9,62.6,29.76,North,360,0.0,3.0,86,0.00,,---,0.00,VWS V14.01,2013-06-25 11:56:00,
2013-06-25 08:01:00,67.3,63.0,29.76,North,360,0.0,1.0,86,0.00,,---,0.00,VWS V14.01,2013-06-25 12:01:00,
2013-06-25 08:06:00,67.5,62.8,29.75,North,360,0.0,1.0,85,0.00,,---,0.00,VWS V14.01,2013-06-25 12:06:00,
2013-06-25 08:11:00,67.8,63.1,29.76,North,360,0.0,1.0,85,0.00,,---,0.00,VWS V14.01,2013-06-25 12:11:00,
2013-06-25 08:16:00,67.9,63.2,29.75,North,360,2.0,2.0,85,0.00,,---,0.00,VWS V14.01,2013-06-25 12:16:00,
2013-06-25 08:21:00,67.9,62.9,29.76,North,360,1.0,2.0,84,0.00,,---,0.00,VWS V14.01,2013-06-25 12:21:00,
2013-06-25 08:26:00,68.0,63.0,29.76,North,360,0.0,2.0,84,0.00,,---,0.00,VWS V14.01,2013-06-25 12:26:00,
2013-06-25 08:31:00,68.1,63.1,29.76,North,360,0.0,2.0,84,0.00,,---,0.00,VWS V14.01,2013-06-25 12:31:00,
2013-06-25 08:36:00,68.4,63.4,29.76,North,360,0.0,2.0,84,0.00,,---,0.00,VWS V14.01,2013-06-25 12:36:00,
2013-06-25 08:41:00,68.9,63.2,29.76,North,360,0.0,2.0,82,0.00,,---,0.00,VWS V14.01,2013-06-25 12:41:00,
2013-06-25 08:46:00,69.3,63.9,29.76,North,360,0.0,2.0,83,0.00,,---,0.00,VWS V14.01,2013-06-25 12:46:00,
2013-06-25 08:51:00,69.6,63.9,29.76,North,360,0.0,2.0,82,0.00,,---,0.00,VWS V14.01,2013-06-25 12:51:00,
2013-06-25 08:56:00,69.9,64.5,29.77,North,360,0.0,2.0,83,0.00,,---,0.00,VWS V14.01,2013-06-25 12:56:00,
2013-06-25 09:01:00,70.1,64.4,29.76,North,360,0.0,2.0,82,0.00,,---,0.00,VWS V14.01,2013-06-25 13:01:00,
2013-06-25 09:06:00,70.1,62.9,29.76,North,360,0.0,2.0,78,0.00,,---,0.00,VWS V14.01,2013-06-25 13:06:00,
2013-06-25 09:11:00,70.2,62.7,29.76,North,360,0.0,2.0,77,0.00,,---,0.00,VWS V14.01,2013-06-25 13:11:00,
2013-06-25 09:16:00,70.5,62.2,29.76,North,360,0.0,2.0,75,0.00,,---,0.00,VWS V14.01,2013-06-25 13:16:00,
2013-06-25 09:21:00,71.2,63.3,29.75,North,360,0.0,2.0,76,0.00,,---,0.00,VWS V14.01,2013-06-25 13:21:00,
2013-06-25 09:26:00,71.9,63.5,29.75,North,360,0.0,2.0,75,0.00,,---,0.00,VWS V14.01,2013-06-25 13:26:00,
2013-06-25 09:31:00,72.5,63.8,29.76,North,360,0.0,2.0,74,0.00,,---,0.00,VWS V14.01,2013-06-25 13:31:00,
2013-06-25 09:36:00,72.9,63.3,29.76,North,360,0.0,2.0,72,0.00,,---,0.00,VWS V14.01,2013-06-25 13:36:00,
2013-06-25 09:41:00,73.1,62.7,29.76,North,360,0.0,2.0,70,0.00,,---,0.00,VWS V14.01,2013-06-25 13:41:00,
2013-06-25 09:46:00,73.3,62.5,29.76,North,360,0.0,2.0,69,0.00,,---,0.00,VWS V14.01,2013-06-25 13:46:00,
2013-06-25 09:51:00,73.5,62.3,29.76,North,360,0.0,2.0,68,0.00,,---,0.00,VWS V14.01,2013-06-25 13:51:00,
2013-06-25 09:56:00,73.4,63.0,29.76,North,360,0.0,2.0,70,0.00,,---,0.00,VWS V14.01,2013-06-25 13:56:00,
2013-06-25 10:01:00,73.5,62.3,29.77,North,360,0.0,0.0,68,0.00,,---,0.00,VWS V14.01,2013-06-25 14:01:00,
2013-06-25 10:06:00,73.8,63.8,29.77,North,360,0.0,0.0,71,0.00,,---,0.00,VWS V14.01,2013-06-25 14:06:00,
2013-06-25 10:11:00,74.1,62.0,29.77,North,360,0.0,0.0,66,0.00,,---,0.00,VWS V14.01,2013-06-25 14:11:00,
2013-06-25 10:16:00,74.2,61.7,29.77,North,360,0.0,1.0,65,0.00,,---,0.00,VWS V14.01,2013-06-25 14:16:00,
2013-06-25 10:21:00,74.4,61.0,29.77,North,360,1.0,2.0,63,0.00,,---,0.00,VWS V14.01,2013-06-25 14:21:00,
2013-06-25 10:26:00,74.5,61.1,29.77,North,360,2.0,2.0,63,0.00,,---,0.00,VWS V14.01,2013-06-25 14:26:00,
2013-06-25 10:31:00,74.5,60.6,29.77,North,360,0.0,2.0,62,0.00,,---,0.00,VWS V14.01,2013-06-25 14:31:00,
2013-06-25 10:36:00,74.4,61.0,29.78,North,360,0.0,3.0,63,0.00,,---,0.00,VWS V14.01,2013-06-25 14:36:00,
2013-06-25 10:41:00,74.5,61.5,29.78,North,360,0.0,3.0,64,0.00,,---,0.00,VWS V14.01,2013-06-25 14:41:00,
2013-06-25 10:46:00,74.1,61.2,29.78,North,360,2.0,3.0,64,0.00,,---,0.00,VWS V14.01,2013-06-25 14:46:00,
2013-06-25 10:51:00,73.9,60.5,29.78,North,360,0.0,3.0,63,0.00,,---,0.00,VWS V14.01,2013-06-25 14:51:00,
2013-06-25 10:56:00,74.1,61.6,29.78,North,360,0.0,3.0,65,0.00,,---,0.00,VWS V14.01,2013-06-25 14:56:00,
2013-06-25 11:01:00,74.2,62.1,29.78,North,360,0.0,3.0,66,0.00,,---,0.00,VWS V14.01,2013-06-25 15:01:00,
2013-06-25 11:06:00,73.7,61.7,29.78,North,360,0.0,3.0,66,0.00,,---,0.00,VWS V14.01,2013-06-25 15:06:00,
2013-06-25 11:11:00,73.5,61.9,29.79,North,360,0.0,3.0,67,0.00,,---,0.00,VWS V14.01,2013-06-25 15:11:00,
2013-06-25 11:16:00,73.4,60.5,29.79,North,360,0.0,3.0,64,0.00,,---,0.00,VWS V14.01,2013-06-25 15:16:00,
2013-06-25 11:21:00,73.7,62.1,29.79,North,360,0.0,3.0,67,0.00,,---,0.00,VWS V14.01,2013-06-25 15:21:00,
2013-06-25 11:26:00,73.9,61.8,29.79,North,360,0.0,3.0,66,0.00,,---,0.00,VWS V14.01,2013-06-25 15:26:00,
2013-06-25 11:31:00,74.2,62.5,29.79,North,360,0.0,3.0,67,0.00,,---,0.00,VWS V14.01,2013-06-25 15:31:00,
2013-06-25 11:36:00,74.2,63.0,29.79,North,360,0.0,3.0,68,0.00,,---,0.00,VWS V14.01,2013-06-25 15:36:00,
2013-06-25 11:41:00,74.1,62.0,29.79,North,360,0.0,3.0,66,0.00,,---,0.00,VWS V14.01,2013-06-25 15:41:00,
2013-06-25 11:46:00,74.2,63.4,29.79,North,360,0.0,3.0,69,0.00,,---,0.00,VWS V14.01,2013-06-25 15:46:00,
2013-06-25 11:51:00,74.4,62.7,29.79,North,360,0.0,3.0,67,0.00,,---,0.00,VWS V14.01,2013-06-25 15:51:00,
2013-06-25 11:56:00,74.6,62.5,29.79,North,360,0.0,3.0,66,0.00,,---,0.00,VWS V14.01,2013-06-25 15:56:00,
2013-06-25 12:01:00,74.7,62.2,29.80,North,360,0.0,0.0,65,0.00,,---,0.00,VWS V14.01,2013-06-25 16:01:00,
2013-06-25 12:06:00,74.9,62.3,29.80,North,360,0.0,0.0,65,0.00,,---,0.00,VWS V14.01,2013-06-25 16:06:00,
2013-06-25 12:11:00,75.1,62.5,29.79,North,360,0.0,1.0,65,0.00,,---,0.00,VWS V14.01,2013-06-25 16:11:00,
2013-06-25 12:16:00,75.2,63.5,29.79,North,360,0.0,1.0,67,0.00,,---,0.00,VWS V14.01,2013-06-25 16:16:00,
2013-06-25 12:21:00,75.2,63.1,29.79,North,360,0.0,2.0,66,0.00,,---,0.00,VWS V14.01,2013-06-25 16:21:00,
2013-06-25 12:26:00,74.9,62.8,29.79,North,360,1.0,2.0,66,0.00,,---,0.00,VWS V14.01,2013-06-25 16:26:00,
2013-06-25 12:31:00,74.6,62.5,29.80,North,360,0.0,2.0,66,0.00,,---,0.00,VWS V14.01,2013-06-25 16:31:00,
2013-06-25 12:36:00,74.6,62.1,29.79,North,360,0.0,2.0,65,0.00,,---,0.00,VWS V14.01,2013-06-25 16:36:00,
2013-06-25 12:41:00,74.8,62.3,29.79,North,360,0.0,2.0,65,0.00,,---,0.00,VWS V14.01,2013-06-25 16:41:00,
2013-06-25 12:46:00,74.7,63.0,29.79,North,360,0.0,3.0,67,0.00,,---,0.00,VWS V14.01,2013-06-25 16:46:00,
2013-06-25 12:51:00,74.3,63.1,29.79,North,360,0.0,3.0,68,0.00,,---,0.00,VWS V14.01,2013-06-25 16:51:00,
2013-06-25 12:56:00,74.1,61.6,29.79,North,360,0.0,3.0,65,0.00,,---,0.00,VWS V14.01,2013-06-25 16:56:00,
2013-06-25 13:01:00,74.1,62.0,29.79,North,360,0.0,3.0,66,0.00,,---,0.00,VWS V14.01,2013-06-25 17:01:00,
2013-06-25 13:06:00,74.2,61.2,29.78,North,360,0.0,3.0,64,0.00,,---,0.00,VWS V14.01,2013-06-25 17:06:00,
2013-06-25 13:11:00,74.4,62.3,29.78,North,360,0.0,3.0,66,0.00,,---,0.00,VWS V14.01,2013-06-25 17:11:00,
2013-06-25 13:16:00,74.6,62.1,29.78,North,360,0.0,3.0,65,0.00,,---,0.00,VWS V14.01,2013-06-25 17:16:00,
2013-06-25 13:21:00,74.6,61.6,29.78,North,360,0.0,3.0,64,0.00,,---,0.00,VWS V14.01,2013-06-25 17:21:00,
2013-06-25 13:26:00,74.6,62.1,29.78,North,360,0.0,3.0,65,0.00,,---,0.00,VWS V14.01,2013-06-25 17:26:00,
2013-06-25 13:31:00,74.4,61.9,29.78,North,360,0.0,3.0,65,0.00,,---,0.00,VWS V14.01,2013-06-25 17:31:00,
2013-06-25 13:36:00,74.1,61.6,29.78,North,360,0.0,3.0,65,0.00,,---,0.00,VWS V14.01,2013-06-25 17:36:00,
2013-06-25 13:41:00,73.9,62.3,29.78,North,360,0.0,3.0,67,0.00,,---,0.00,VWS V14.01,2013-06-25 17:41:00,
2013-06-25 13:46:00,73.3,62.5,29.78,North,360,0.0,3.0,69,0.00,,---,0.00,VWS V14.01,2013-06-25 17:46:00,
2013-06-25 13:51:00,72.7,62.0,29.78,North,360,0.0,3.0,69,0.00,,---,0.00,VWS V14.01,2013-06-25 17:51:00,
2013-06-25 13:56:00,72.5,62.2,29.78,North,360,0.0,3.0,70,0.00,,---,0.00,VWS V14.01,2013-06-25 17:56:00,
2013-06-25 14:01:00,72.5,61.8,29.78,North,360,0.0,1.0,69,0.00,,---,0.00,VWS V14.01,2013-06-25 18:01:00,
2013-06-25 14:06:00,72.7,62.0,29.78,North,360,0.0,1.0,69,0.00,,---,0.00,VWS V14.01,2013-06-25 18:06:00,
2013-06-25 14:11:00,72.8,61.6,29.78,North,360,0.0,1.0,68,0.00,,---,0.00,VWS V14.01,2013-06-25 18:11:00,
2013-06-25 14:16:00,72.9,61.3,29.78,North,360,0.0,1.0,67,0.00,,---,0.00,VWS V14.01,2013-06-25 18:16:00,
2013-06-25 14:21:00,72.9,61.7,29.78,North,360,0.0,2.0,68,0.00,,---,0.00,VWS V14.01,2013-06-25 18:21:00,
2013-06-25 14:26:00,72.9,61.7,29.78,North,360,0.0,2.0,68,0.00,,---,0.00,VWS V14.01,2013-06-25 18:26:00,
2013-06-25 14:31:00,72.9,61.7,29.77,North,360,0.0,2.0,68,0.00,,---,0.00,VWS V14.01,2013-06-25 18:31:00,
2013-06-25 14:36:00,72.9,62.5,29.77,North,360,0.0,3.0,70,0.00,,---,0.00,VWS V14.01,2013-06-25 18:36:00,
2013-06-25 14:41:00,73.0,62.2,29.77,North,360,0.0,3.0,69,0.00,,---,0.00,VWS V14.01,2013-06-25 18:41:00,
2013-06-25 14:46:00,73.0,61.4,29.77,North,360,0.0,3.0,67,0.00,,---,0.00,VWS V14.01,2013-06-25 18:46:00,
2013-06-25 14:51:00,73.1,61.9,29.77,North,360,1.0,3.0,68,0.00,,---,0.00,VWS V14.01,2013-06-25 18:51:00,
2013-06-25 14:56:00,73.3,62.1,29.77,North,360,0.0,3.0,68,0.00,,---,0.00,VWS V14.01,2013-06-25 18:56:00,
2013-06-25 15:01:00,73.5,61.5,29.77,North,360,0.0,3.0,66,0.00,,---,0.00,VWS V14.01,2013-06-25 19:01:00,
2013-06-25 15:06:00,73.5,61.5,29.77,North,360,0.0,3.0,66,0.00,,---,0.00,VWS V14.01,2013-06-25 19:06:00,
2013-06-25 15:11:00,73.7,62.1,29.77,North,360,0.0,3.0,67,0.00,,---,0.00,VWS V14.01,2013-06-25 19:11:00,
2013-06-25 15:16:00,73.8,61.7,29.77,North,360,0.0,3.0,66,0.00,,---,0.00,VWS V14.01,2013-06-25 19:16:00,
2013-06-25 15:21:00,73.7,61.7,29.77,North,360,0.0,3.0,66,0.00,,---,0.00,VWS V14.01,2013-06-25 19:21:00,
2013-06-25 15:26:00,73.4,61.4,29.77,North,360,0.0,3.0,66,0.00,,---,0.00,VWS V14.01,2013-06-25 19:26:00,
2013-06-25 15:31:00,73.2,61.6,29.77,North,360,0.0,3.0,67,0.00,,---,0.00,VWS V14.01,2013-06-25 19:31:00,
2013-06-25 15:36:00,73.0,61.0,29.77,North,360,0.0,3.0,66,0.00,,---,0.00,VWS V14.01,2013-06-25 19:36:00,
2013-06-25 15:41:00,73.1,61.1,29.77,North,360,0.0,3.0,66,0.00,,---,0.00,VWS V14.01,2013-06-25 19:41:00,
2013-06-25 15:46:00,73.4,62.2,29.77,North,360,0.0,3.0,68,0.00,,---,0.00,VWS V14.01,2013-06-25 19:46:00,
2013-06-25 15:51:00,73.6,61.5,29.77,North,360,0.0,3.0,66,0.00,,---,0.00,VWS V14.01,2013-06-25 19:51:00,
2013-06-25 15:56:00,73.8,61.7,29.77,North,360,0.0,3.0,66,0.00,,---,0.00,VWS V14.01,2013-06-25 19:56:00,
2013-06-25 16:01:00,73.9,62.3,29.77,North,360,1.0,1.0,67,0.00,,---,0.00,VWS V14.01,2013-06-25 20:01:00,
2013-06-25 16:06:00,73.9,61.8,29.78,North,360,0.0,3.0,66,0.00,,---,0.00,VWS V14.01,2013-06-25 20:06:00,
2013-06-25 16:11:00,73.9,61.8,29.78,North,360,0.0,3.0,66,0.00,,---,0.00,VWS V14.01,2013-06-25 20:11:00,
2013-06-25 16:16:00,73.9,61.8,29.77,North,360,0.0,3.0,66,0.00,,---,0.00,VWS V14.01,2013-06-25 20:16:00,
2013-06-25 16:21:00,73.8,61.7,29.77,North,360,0.0,3.0,66,0.00,,---,0.00,VWS V14.01,2013-06-25 20:21:00,
2013-06-25 16:26:00,73.7,62.5,29.77,North,360,0.0,3.0,68,0.00,,---,0.00,VWS V14.01,2013-06-25 20:26:00,
2013-06-25 16:31:00,73.9,62.3,29.77,North,360,0.0,3.0,67,0.00,,---,0.00,VWS V14.01,2013-06-25 20:31:00,
2013-06-25 16:36:00,73.8,61.7,29.77,North,360,0.0,3.0,66,0.00,,---,0.00,VWS V14.01,2013-06-25 20:36:00,
2013-06-25 16:41:00,73.4,61.8,29.77,North,360,0.0,3.0,67,0.00,,---,0.00,VWS V14.01,2013-06-25 20:41:00,
2013-06-25 16:46:00,73.1,61.5,29.77,North,360,0.0,3.0,67,0.00,,---,0.00,VWS V14.01,2013-06-25 20:46:00,
2013-06-25 16:51:00,72.9,61.3,29.77,North,360,0.0,3.0,67,0.00,,---,0.00,VWS V14.01,2013-06-25 20:51:00,
2013-06-25 16:56:00,72.8,61.6,29.77,North,360,0.0,3.0,68,0.00,,---,0.00,VWS V14.01,2013-06-25 20:56:00,
2013-06-25 17:01:00,72.8,61.6,29.77,North,360,0.0,3.0,68,0.00,,---,0.00,VWS V14.01,2013-06-25 21:01:00,
2013-06-25 17:06:00,72.6,61.4,29.77,North,360,0.0,3.0,68,0.00,,---,0.00,VWS V14.01,2013-06-25 21:06:00,
2013-06-25 17:11:00,72.5,61.3,29.78,North,360,0.0,3.0,68,0.00,,---,0.00,VWS V14.01,2013-06-25 21:11:00,
2013-06-25 17:16:00,72.3,61.6,29.78,North,360,0.0,3.0,69,0.00,,---,0.00,VWS V14.01,2013-06-25 21:16:00,
2013-06-25 17:21:00,72.2,61.9,29.78,North,360,0.0,3.0,70,0.00,,---,0.00,VWS V14.01,2013-06-25 21:21:00,
2013-06-25 17:26:00,72.0,61.3,29.77,North,360,0.0,3.0,69,0.00,,---,0.00,VWS V14.01,2013-06-25 21:26:00,
2013-06-25 17:31:00,71.9,61.2,29.77,North,360,0.0,3.0,69,0.00,,---,0.00,VWS V14.01,2013-06-25 21:31:00,
2013-06-25 17:36:00,71.8,61.5,29.77,North,360,0.0,3.0,70,0.00,,---,0.00,VWS V14.01,2013-06-25 21:36:00,
2013-06-25 17:41:00,71.8,61.1,29.77,North,360,0.0,3.0,69,0.00,,---,0.00,VWS V14.01,2013-06-25 21:41:00,
2013-06-25 17:46:00,71.5,60.8,29.77,North,360,0.0,3.0,69,0.00,,---,0.00,VWS V14.01,2013-06-25 21:46:00,
2013-06-25 17:51:00,71.3,60.6,29.77,North,360,0.0,3.0,69,0.00,,---,0.00,VWS V14.01,2013-06-25 21:51:00,
2013-06-25 17:56:00,71.1,60.8,29.77,North,360,0.0,3.0,70,0.00,,---,0.00,VWS V14.01,2013-06-25 21:56:00,
2013-06-25 18:01:00,71.1,60.8,29.77,North,360,0.0,0.0,70,0.00,,---,0.00,VWS V14.01,2013-06-25 22:01:00,
2013-06-25 18:06:00,71.1,60.4,29.76,North,360,0.0,1.0,69,0.00,,---,0.00,VWS V14.01,2013-06-25 22:06:00,
2013-06-25 18:11:00,70.9,60.6,29.77,North,360,0.0,1.0,70,0.00,,---,0.00,VWS V14.01,2013-06-25 22:11:00,
2013-06-25 18:16:00,70.7,60.5,29.76,North,360,0.0,1.0,70,0.00,,---,0.00,VWS V14.01,2013-06-25 22:16:00,
2013-06-25 18:21:00,70.5,60.7,29.76,North,360,0.0,1.0,71,0.00,,---,0.00,VWS V14.01,2013-06-25 22:21:00,
2013-06-25 18:26:00,70.4,60.6,29.76,North,360,0.0,1.0,71,0.00,,---,0.00,VWS V14.01,2013-06-25 22:26:00,
2013-06-25 18:31:00,70.3,60.5,29.76,North,360,0.0,3.0,71,0.00,,---,0.00,VWS V14.01,2013-06-25 22:31:00,
2013-06-25 18:36:00,70.1,60.3,29.77,North,360,0.0,3.0,71,0.00,,---,0.00,VWS V14.01,2013-06-25 22:36:00,
2013-06-25 18:41:00,69.8,60.4,29.77,North,360,0.0,3.0,72,0.00,,---,0.00,VWS V14.01,2013-06-25 22:41:00,
2013-06-25 18:46:00,69.5,59.7,29.77,North,360,0.0,3.0,71,0.00,,---,0.00,VWS V14.01,2013-06-25 22:46:00,
2013-06-25 18:51:00,69.1,59.7,29.77,North,360,0.0,3.0,72,0.00,,---,0.00,VWS V14.01,2013-06-25 22:51:00,
2013-06-25 18:56:00,68.7,59.7,29.77,North,360,0.0,3.0,73,0.00,,---,0.00,VWS V14.01,2013-06-25 22:56:00,
2013-06-25 19:01:00,68.2,59.6,29.77,North,360,0.0,3.0,74,0.00,,---,0.00,VWS V14.01,2013-06-25 23:01:00,
2013-06-25 19:06:00,67.8,59.6,29.77,North,360,0.0,3.0,75,0.00,,---,0.00,VWS V14.01,2013-06-25 23:06:00,
2013-06-25 19:11:00,67.5,59.7,29.77,North,360,0.0,3.0,76,0.00,,---,0.00,VWS V14.01,2013-06-25 23:11:00,
2013-06-25 19:16:00,67.3,59.8,29.77,North,360,0.0,3.0,77,0.00,,---,0.00,VWS V14.01,2013-06-25 23:16:00,
2013-06-25 19:21:00,67.2,59.8,29.77,North,360,0.0,3.0,77,0.00,,---,0.00,VWS V14.01,2013-06-25 23:21:00,
2013-06-25 19:26:00,67.2,59.4,29.77,North,360,0.0,3.0,76,0.00,,---,0.00,VWS V14.01,2013-06-25 23:26:00,
2013-06-25 19:31:00,67.3,60.2,29.77,North,360,0.0,3.0,78,0.00,,---,0.00,VWS V14.01,2013-06-25 23:31:00,
2013-06-25 19:36:00,67.4,59.6,29.77,North,360,0.0,3.0,76,0.00,,---,0.00,VWS V14.01,2013-06-25 23:36:00,
2013-06-25 19:41:00,67.4,59.6,29.77,North,360,0.0,3.0,76,0.00,,---,0.00,VWS V14.01,2013-06-25 23:41:00,
2013-06-25 19:46:00,67.2,59.4,29.77,North,360,0.0,3.0,76,0.00,,---,0.00,VWS V14.01,2013-06-25 23:46:00,
2013-06-25 19:51:00,67.1,59.3,29.77,North,360,0.0,3.0,76,0.00,,---,0.00,VWS V14.01,2013-06-25 23:51:00,
2013-06-25 19:56:00,67.0,59.2,29.77,North,360,0.0,3.0,76,0.00,,---,0.00,VWS V14.01,2013-06-25 23:56:00,
2013-06-25 20:01:00,66.7,58.9,29.77,North,360,0.0,0.0,76,0.00,,---,0.00,VWS V14.01,2013-06-26 00:01:00,
2013-06-25 20:06:00,66.4,59.0,29.77,North,360,0.0,0.0,77,0.00,,---,0.00,VWS V14.01,2013-06-26 00:06:00,
2013-06-25 20:11:00,66.2,58.8,29.77,North,360,0.0,1.0,77,0.00,,---,0.00,VWS V14.01,2013-06-26 00:11:00,
2013-06-25 20:16:00,66.1,59.0,29.77,North,360,0.0,1.0,78,0.00,,---,0.00,VWS V14.01,2013-06-26 00:16:00,
2013-06-25 20:21:00,65.9,58.5,29.77,North,360,0.0,1.0,77,0.00,,---,0.00,VWS V14.01,2013-06-26 00:21:00,
2013-06-25 20:26:00,65.9,58.9,29.77,North,360,0.0,1.0,78,0.00,,---,0.00,VWS V14.01,2013-06-26 00:26:00,
2013-06-25 20:31:00,65.9,58.9,29.76,North,360,0.0,1.0,78,0.00,,---,0.00,VWS V14.01,2013-06-26 00:31:00,
2013-06-25 20:36:00,66.1,58.7,29.76,North,360,0.0,1.0,77,0.00,,---,0.00,VWS V14.01,2013-06-26 00:36:00,
2013-06-25 20:41:00,66.3,58.9,29.76,North,360,0.0,1.0,77,0.00,,---,0.00,VWS V14.01,2013-06-26 00:41:00,
2013-06-25 20:46:00,66.5,58.7,29.76,North,360,0.0,1.0,76,0.00,,---,0.00,VWS V14.01,2013-06-26 00:46:00,
2013-06-25 20:51:00,66.6,58.8,29.76,North,360,0.0,1.0,76,0.00,,---,0.00,VWS V14.01,2013-06-26 00:51:00,
2013-06-25 20:56:00,66.9,58.7,29.76,North,360,0.0,1.0,75,0.00,,---,0.00,VWS V14.01,2013-06-26 00:56:00,
2013-06-25 21:01:00,67.0,58.8,29.76,North,360,0.0,1.0,75,0.00,,---,0.00,VWS V14.01,2013-06-26 01:01:00,
2013-06-25 21:06:00,66.9,58.7,29.76,North,360,0.0,1.0,75,0.00,,---,0.00,VWS V14.01,2013-06-26 01:06:00,
2013-06-25 21:11:00,66.6,58.4,29.76,North,360,0.0,1.0,75,0.00,,---,0.00,VWS V14.01,2013-06-26 01:11:00,
2013-06-25 21:16:00,66.3,58.5,29.76,North,360,0.0,1.0,76,0.00,,---,0.00,VWS V14.01,2013-06-26 01:16:00,
2013-06-25 21:21:00,65.9,58.5,29.75,North,360,0.0,1.0,77,0.00,,---,0.00,VWS V14.01,2013-06-26 01:21:00,
2013-06-25 21:26:00,65.4,58.4,29.76,North,360,0.0,1.0,78,0.00,,---,0.00,VWS V14.01,2013-06-26 01:26:00,
2013-06-25 21:31:00,65.0,58.3,29.76,North,360,0.0,1.0,79,0.00,,---,0.00,VWS V14.01,2013-06-26 01:31:00,
2013-06-25 21:36:00,64.4,58.1,29.76,North,360,0.0,1.0,80,0.00,,---,0.00,VWS V14.01,2013-06-26 01:36:00,
2013-06-25 21:41:00,63.7,57.8,29.76,North,360,0.0,1.0,81,0.00,,---,0.00,VWS V14.01,2013-06-26 01:41:00,
2013-06-25 21:46:00,63.3,57.7,29.76,North,360,0.0,1.0,82,0.00,,---,0.00,VWS V14.01,2013-06-26 01:46:00,
2013-06-25 21:51:00,63.0,57.4,29.76,North,360,0.0,1.0,82,0.00,,---,0.00,VWS V14.01,2013-06-26 01:51:00,
2013-06-25 21:56:00,62.6,57.4,29.76,North,360,0.0,1.0,83,0.00,,---,0.00,VWS V14.01,2013-06-26 01:56:00,
2013-06-25 22:01:00,62.2,57.3,29.76,North,360,0.0,0.0,84,0.00,,---,0.00,VWS V14.01,2013-06-26 02:01:00,
2013-06-25 22:06:00,61.9,57.3,29.76,North,360,0.0,0.0,85,0.00,,---,0.00,VWS V14.01,2013-06-26 02:06:00,
2013-06-25 22:11:00,61.6,57.0,29.76,North,360,0.0,0.0,85,0.00,,---,0.00,VWS V14.01,2013-06-26 02:11:00,
2013-06-25 22:16:00,61.4,57.2,29.76,North,360,0.0,0.0,86,0.00,,---,0.00,VWS V14.01,2013-06-26 02:16:00,
2013-06-25 22:21:00,61.1,56.9,29.76,North,360,0.0,0.0,86,0.00,,---,0.00,VWS V14.01,2013-06-26 02:21:00,
2013-06-25 22:26:00,60.9,57.0,29.76,North,360,0.0,0.0,87,0.00,,---,0.00,VWS V14.01,2013-06-26 02:26:00,
2013-06-25 22:31:00,60.7,56.8,29.77,North,360,0.0,0.0,87,0.00,,---,0.00,VWS V14.01,2013-06-26 02:31:00,
2013-06-25 22:36:00,60.4,56.8,29.77,North,360,0.0,0.0,88,0.00,,---,0.00,VWS V14.01,2013-06-26 02:36:00,
2013-06-25 22:41:00,60.2,56.6,29.76,North,360,0.0,0.0,88,0.00,,---,0.00,VWS V14.01,2013-06-26 02:41:00,
2013-06-25 22:46:00,60.1,56.5,29.76,North,360,0.0,0.0,88,0.00,,---,0.00,VWS V14.01,2013-06-26 02:46:00,
2013-06-25 22:51:00,59.9,56.7,29.76,North,360,1.0,2.0,89,0.00,,---,0.00,VWS V14.01,2013-06-26 02:51:00,
2013-06-25 22:56:00,59.8,56.6,29.77,North,360,0.0,2.0,89,0.00,,---,0.00,VWS V14.01,2013-06-26 02:56:00,
2013-06-25 23:01:00,59.7,56.8,29.76,North,360,0.0,2.0,90,0.00,,---,0.00,VWS V14.01,2013-06-26 03:01:00,
2013-06-25 23:06:00,59.6,56.7,29.77,North,360,0.0,2.0,90,0.00,,---,0.00,VWS V14.01,2013-06-26 03:06:00,
2013-06-25 23:11:00,59.6,56.7,29.77,North,360,0.0,2.0,90,0.00,,---,0.00,VWS V14.01,2013-06-26 03:11:00,
2013-06-25 23:16:00,59.5,56.6,29.77,North,360,0.0,2.0,90,0.00,,---,0.00,VWS V14.01,2013-06-26 03:16:00,
2013-06-25 23:21:00,59.5,56.6,29.77,North,360,0.0,2.0,90,0.00,,---,0.00,VWS V14.01,2013-06-26 03:21:00,
2013-06-25 23:26:00,59.5,56.6,29.77,North,360,0.0,2.0,90,0.00,,---,0.00,VWS V14.01,2013-06-26 03:26:00,
2013-06-25 23:31:00,59.4,56.5,29.77,North,360,0.0,2.0,90,0.00,,---,0.00,VWS V14.01,2013-06-26 03:31:00,
2013-06-25 23:36:00,59.4,56.8,29.77,North,360,0.0,2.0,91,0.00,,---,0.00,VWS V14.01,2013-06-26 03:36:00,
2013-06-25 23:41:00,59.4,56.8,29.76,North,360,0.0,2.0,91,0.00,,---,0.00,VWS V14.01,2013-06-26 03:41:00,
2013-06-25 23:46:00,59.4,56.8,29.76,North,360,0.0,2.0,91,0.00,,---,0.00,VWS V14.01,2013-06-26 03:46:00,
2013-06-25 23:51:00,59.4,56.8,29.76,North,360,0.0,2.0,91,0.00,,---,0.00,VWS V14.01,2013-06-26 03:51:00,
2013-06-25 23:56:00,59.4,56.8,29.76,North,360,0.0,2.0,91,0.00,,---,0.00,VWS V14.01,2013-06-26 03:56:00,